FR-0216 weather

Centre Hospitalier Heliport
Moutiers, Rhône Alpes, France

Public forecast

Using degrees Celsius for public forecast. Weather courtesy of forecast.io.

METAR (pilot weather report)

Closest report is Chambéry-Savoie Airport, 29.1 nm (53.8 km) WNW. Retrieved 2019/09/17 20:30 UTC (0 seconds ago):

LFLB 172030Z AUTO 13001KT CAVOK 16/11 Q1016

TAF (pilot weather forecast)

Closest forecast is Chambéry-Savoie Airport, 29.1 nm (53.8 km) WNW. Retrieved 2019/09/17 19:06 UTC (1 hour ago):

TAF LFLB 171900Z 1719/1812 CNL